Time;durP1;ratioP1;P1;durP2;ratioP2;P2;SDS_P1;SDS_P2;PMS_P1;PMS_P2;Temp;Humidity;BMP_temperature;BMP_pressure;BME280_temperature;BME280_humidity;BME280_pressure;Samples;Min_cycle;Max_cycle;Signal;HPM_P1;HPM_P2
2023/09/05 09:33:29;;;;;;;2.83;1.58;;;25.60;99.90;;;;;;6210215;23;20047;-96
2023/09/05 09:36:04;;;;;;;2.90;1.63;;;25.70;99.90;;;;;;6161755;23;20021;-96
2023/09/05 14:09:45;;;;;;;3.67;1.48;;;30.80;99.90;;;;;;6272450;22;20031;-92
2023/09/05 14:12:17;;;;;;;2.50;1.20;;;30.70;99.80;;;;;;6219245;22;20023;-91
2023/09/05 14:14:44;;;;;;;1.45;1.35;;;30.60;99.50;;;;;;6223389;22;20020;-93
2023/09/05 14:17:10;;;;;;;3.83;1.50;;;30.60;99.70;;;;;;6223190;22;20452;-93
2023/09/05 14:19:37;;;;;;;2.38;1.30;;;30.90;99.90;;;;;;6250705;22;20015;-92
2023/09/05 14:22:03;;;;;;;1.25;1.10;;;30.90;99.90;;;;;;6249743;22;20024;-92
2023/09/05 14:24:29;;;;;;;2.63;1.25;;;30.90;99.90;;;;;;6223791;22;20453;-93
2023/09/05 14:26:56;;;;;;;2.60;1.13;;;30.80;99.60;;;;;;6249291;22;20066;-93
2023/09/05 14:29:22;;;;;;;1.95;1.50;;;30.80;99.90;;;;;;6227015;22;20011;-93
2023/09/05 14:31:48;;;;;;;2.03;1.30;;;30.70;99.60;;;;;;6252848;22;20027;-94
2023/09/05 14:34:14;;;;;;;1.90;1.20;;;30.80;99.60;;;;;;6280836;22;20016;-93
2023/09/05 14:36:39;;;;;;;2.00;1.35;;;30.70;99.90;;;;;;6249776;22;20038;-92
2023/09/05 14:39:05;;;;;;;5.43;1.73;;;30.70;99.90;;;;;;6249191;22;20007;-92
2023/09/05 14:41:31;;;;;;;2.33;1.45;;;30.70;99.90;;;;;;6223883;22;20427;-93
2023/09/05 14:44:02;;;;;;;2.60;1.20;;;30.80;99.70;;;;;;6248583;22;20008;-92
2023/09/05 14:46:29;;;;;;;3.72;1.30;;;30.80;99.90;;;;;;6223422;22;20051;-92
2023/09/05 14:48:56;;;;;;;2.20;1.30;;;31.00;99.90;;;;;;6248187;22;20012;-92
2023/09/05 14:51:22;;;;;;;1.70;1.38;;;31.00;99.80;;;;;;6249019;22;20099;-92
2023/09/05 14:53:48;;;;;;;4.15;1.40;;;31.00;99.90;;;;;;6275706;22;20026;-93
2023/09/05 14:56:13;;;;;;;4.75;1.40;;;31.00;99.40;;;;;;6223506;22;20087;-92
2023/09/05 14:58:39;;;;;;;3.05;1.50;;;31.00;99.90;;;;;;6223315;22;20083;-92
2023/09/05 15:01:05;;;;;;;3.85;1.25;;;31.20;99.90;;;;;;6248913;22;20310;-93
2023/09/05 15:03:31;;;;;;;1.67;1.40;;;31.00;99.50;;;;;;6222851;22;20008;-93
2023/09/05 15:05:56;;;;;;;3.85;1.50;;;31.20;99.90;;;;;;6223064;22;20326;-93
2023/09/05 15:08:22;;;;;;;1.50;1.40;;;30.90;99.80;;;;;;6223497;22;20581;-92
2023/09/05 15:10:47;;;;;;;3.90;1.38;;;30.80;99.50;;;;;;6274713;22;20023;-92
2023/09/05 15:13:13;;;;;;;2.05;1.40;;;31.00;99.90;;;;;;6248489;22;20047;-92
2023/09/05 15:15:39;;;;;;;4.60;1.30;;;30.90;99.70;;;;;;6249087;22;20008;-93
2023/09/05 15:18:05;;;;;;;1.45;1.30;;;30.60;99.60;;;;;;6248762;22;20011;-92
2023/09/05 15:20:30;;;;;;;1.88;1.42;;;30.60;99.90;;;;;;6248378;22;20121;-92
2023/09/05 15:22:56;;;;;;;2.20;1.13;;;30.50;99.90;;;;;;6251610;22;20377;-92
2023/09/05 15:25:21;;;;;;;1.42;1.30;;;30.60;99.90;;;;;;6253288;22;20014;-92
2023/09/05 15:27:47;;;;;;;3.33;1.35;;;30.70;99.80;;;;;;6256687;22;20008;-92
2023/09/05 15:30:15;;;;;;;1.75;1.30;;;30.50;99.70;;;;;;6280519;22;20099;-92
2023/09/05 15:32:42;;;;;;;2.50;1.48;;;30.50;99.60;;;;;;6224249;22;20039;-92
2023/09/05 15:35:11;;;;;;;;;;;30.60;99.90;;;;;;6250790;22;20015;-92
2023/09/05 15:37:37;;;;;;;1.65;1.25;;;30.50;99.30;;;;;;6224403;22;19985;-92
2023/09/05 15:40:04;;;;;;;1.87;1.40;;;30.70;99.70;;;;;;6224541;22;20202;-92
2023/09/05 15:42:31;;;;;;;5.57;1.35;;;30.70;99.90;;;;;;6249822;22;20254;-93
2023/09/05 15:44:57;;;;;;;;;;;30.70;99.90;;;;;;6224896;22;20034;-92
2023/09/05 15:47:23;;;;;;;1.73;1.13;;;30.70;99.90;;;;;;6225740;22;19989;-92
2023/09/05 15:49:49;;;;;;;1.40;1.00;;;30.60;99.80;;;;;;6252534;22;20012;-91
2023/09/05 15:52:18;;;;;;;1.27;1.17;;;30.60;99.80;;;;;;6225627;22;20106;-91
2023/09/05 15:54:45;;;;;;;4.30;1.48;;;30.40;99.90;;;;;;6223763;22;20018;-92
2023/09/05 15:57:12;;;;;;;1.50;1.40;;;30.50;99.90;;;;;;6225111;22;20042;-92
2023/09/05 15:59:44;;;;;;;4.53;1.10;;;30.50;99.90;;;;;;6225042;22;20016;-92
2023/09/05 16:02:11;;;;;;;1.50;1.25;;;30.40;99.90;;;;;;6224351;22;20020;-93
2023/09/05 16:04:37;;;;;;;1.40;1.30;;;30.30;99.90;;;;;;6249292;22;20011;-92
2023/09/05 16:07:03;;;;;;;4.53;1.73;;;30.20;99.90;;;;;;6223927;22;20138;-92
2023/09/05 16:09:30;;;;;;;1.47;1.07;;;30.20;99.90;;;;;;6223200;22;20035;-93
2023/09/05 16:11:56;;;;;;;4.20;1.25;;;30.20;99.90;;;;;;6224021;22;20059;-93
2023/09/05 16:14:23;;;;;;;2.28;1.30;;;30.20;99.90;;;;;;6223991;22;20067;-93
2023/09/05 16:16:49;;;;;;;1.60;1.33;;;30.30;99.90;;;;;;6248882;22;20022;-93
2023/09/05 16:19:15;;;;;;;1.13;1.05;;;30.20;99.90;;;;;;6254207;22;20016;-94
2023/09/05 16:21:41;;;;;;;2.80;1.30;;;30.10;99.90;;;;;;6224331;22;20012;-93
2023/09/05 16:24:07;;;;;;;2.23;1.30;;;30.10;99.90;;;;;;6230366;22;20011;-93
2023/09/05 16:26:32;;;;;;;1.53;1.37;;;30.10;99.90;;;;;;6224197;22;20536;-92
2023/09/05 16:28:58;;;;;;;2.53;1.40;;;30.00;99.90;;;;;;6226114;22;20015;-93
2023/09/05 16:31:24;;;;;;;2.43;1.10;;;29.90;99.90;;;;;;6224404;22;20012;-93
2023/09/05 16:33:50;;;;;;;4.97;1.50;;;29.90;99.90;;;;;;6250971;22;20057;-93
2023/09/05 16:36:16;;;;;;;2.95;1.40;;;29.80;99.90;;;;;;6225503;22;20020;-92
2023/09/05 16:38:41;;;;;;;2.47;1.30;;;29.70;99.90;;;;;;6225647;22;20025;-92
2023/09/05 16:41:09;;;;;;;4.17;1.37;;;29.70;99.90;;;;;;6249336;22;20014;-92
2023/09/05 16:43:35;;;;;;;1.80;1.33;;;29.50;99.90;;;;;;6250839;22;20019;-93
2023/09/05 16:46:01;;;;;;;2.50;1.30;;;29.40;99.90;;;;;;6275557;22;20003;-93
2023/09/05 16:48:28;;;;;;;1.60;1.40;;;29.40;99.90;;;;;;6250588;22;20435;-93
2023/09/05 16:50:57;;;;;;;5.72;1.40;;;29.20;99.90;;;;;;6227996;22;20012;-94
2023/09/05 16:53:23;;;;;;;3.53;2.13;;;29.10;99.90;;;;;;6225248;22;20020;-94
2023/09/05 16:55:49;;;;;;;3.17;2.37;;;29.10;99.90;;;;;;6226705;22;20025;-94
2023/09/05 16:58:15;;;;;;;3.50;2.17;;;29.00;99.90;;;;;;6251233;22;20015;-94
2023/09/05 17:00:43;;;;;;;2.43;1.77;;;28.90;99.90;;;;;;6250867;22;20333;-95
2023/09/05 17:03:10;;;;;;;3.33;2.00;;;28.80;99.90;;;;;;6226857;22;20053;-94
2023/09/05 17:05:39;;;;;;;1.83;1.60;;;28.70;99.90;;;;;;6222892;22;20027;-93
2023/09/05 17:08:08;;;;;;;2.83;2.20;;;28.50;99.90;;;;;;6248352;22;20012;-94
2023/09/05 17:10:35;;;;;;;2.10;1.30;;;28.40;99.90;;;;;;6223945;22;20014;-94
2023/09/05 17:13:01;;;;;;;2.47;1.55;;;28.30;99.90;;;;;;6254131;22;20053;-94
2023/09/05 17:15:27;;;;;;;1.87;1.40;;;28.20;99.90;;;;;;6223699;22;20015;-93
2023/09/05 17:17:53;;;;;;;2.05;1.20;;;28.10;99.90;;;;;;6228324;22;20023;-94
2023/09/05 17:20:19;;;;;;;1.90;1.43;;;28.10;99.90;;;;;;6249068;22;20512;-94
2023/09/05 17:22:45;;;;;;;5.78;1.30;;;28.00;99.90;;;;;;6223290;22;20016;-93
2023/09/05 17:25:15;;;;;;;3.73;1.37;;;27.90;99.90;;;;;;6222610;22;20023;-94
2023/09/05 17:27:41;;;;;;;2.03;1.40;;;27.80;99.90;;;;;;6222023;22;20023;-94
2023/09/05 17:30:09;;;;;;;2.50;1.80;;;27.70;99.90;;;;;;6247898;22;20011;-93
2023/09/05 17:32:35;;;;;;;5.18;1.65;;;27.60;99.90;;;;;;6251216;22;20074;-92
2023/09/05 17:35:00;;;;;;;2.80;1.55;;;27.50;99.90;;;;;;6250555;22;20498;-93
2023/09/05 17:37:26;;;;;;;3.25;1.50;;;27.50;99.90;;;;;;6277072;22;20012;-93
2023/09/05 17:39:52;;;;;;;3.00;1.70;;;27.40;99.90;;;;;;6227632;22;20008;-93
2023/09/05 17:42:17;;;;;;;1.73;1.63;;;27.30;99.90;;;;;;6251661;22;20015;-93
2023/09/05 17:44:43;;;;;;;6.07;1.67;;;27.20;99.90;;;;;;6275891;22;20094;-94
2023/09/05 17:47:09;;;;;;;3.72;1.70;;;27.00;99.90;;;;;;6249226;22;20075;-93
2023/09/05 17:49:35;;;;;;;5.47;1.70;;;27.00;99.90;;;;;;6226022;22;20008;-93
2023/09/05 17:52:00;;;;;;;4.50;1.77;;;26.90;99.90;;;;;;6254957;22;20019;-94
2023/09/05 17:54:26;;;;;;;3.53;1.70;;;26.80;99.90;;;;;;6275206;22;20020;-94
2023/09/05 17:56:52;;;;;;;4.45;2.35;;;26.70;99.90;;;;;;6222577;22;20440;-94
2023/09/05 17:59:19;;;;;;;2.65;1.60;;;26.60;99.90;;;;;;6247674;22;20016;-93
2023/09/05 18:01:45;;;;;;;2.75;1.40;;;26.50;99.90;;;;;;6223784;22;20016;-93
2023/09/05 18:04:11;;;;;;;4.27;1.70;;;26.40;99.90;;;;;;6251381;22;20027;-93
2023/09/05 18:06:38;;;;;;;3.22;1.40;;;26.30;99.90;;;;;;6252970;22;20019;-91
2023/09/05 18:09:05;;;;;;;2.83;1.50;;;26.20;99.90;;;;;;6253372;22;20332;-93
2023/09/05 18:11:31;;;;;;;2.75;1.77;;;26.20;99.90;;;;;;6278193;22;20008;-93
2023/09/05 18:13:56;;;;;;;2.45;1.60;;;26.00;99.90;;;;;;6251726;22;20091;-93
2023/09/05 18:16:22;;;;;;;3.50;1.55;;;26.00;99.90;;;;;;6247906;22;20016;-93
2023/09/05 18:18:48;;;;;;;4.38;1.80;;;25.80;99.90;;;;;;6222032;22;20011;-94
2023/09/05 18:21:14;;;;;;;2.83;1.85;;;25.80;99.90;;;;;;6223007;22;20020;-93
2023/09/05 18:23:39;;;;;;;3.00;2.00;;;25.60;99.90;;;;;;6223891;22;20020;-94
2023/09/05 18:26:07;;;;;;;2.78;1.70;;;25.50;99.90;;;;;;6249245;22;20042;-94
2023/09/05 18:28:34;;;;;;;2.15;1.80;;;25.40;99.90;;;;;;6249114;22;20022;-94
2023/09/05 18:31:09;;;;;;;2.25;1.63;;;25.30;99.90;;;;;;6224666;22;20039;-95
2023/09/05 18:33:36;;;;;;;3.08;1.80;;;25.50;99.90;;;;;;6225328;22;20094;-95
2023/09/05 18:36:03;;;;;;;2.30;1.67;;;25.20;99.90;;;;;;6224032;22;20034;-94
2023/09/05 18:38:29;;;;;;;1.90;1.63;;;25.10;99.90;;;;;;6249687;22;20425;-94
2023/09/05 18:40:56;;;;;;;2.30;1.60;;;25.00;99.90;;;;;;6224261;22;20087;-94
2023/09/05 18:43:22;;;;;;;2.03;1.73;;;24.80;99.90;;;;;;6224042;22;20039;-94
2023/09/05 18:45:49;;;;;;;3.85;1.90;;;24.90;99.90;;;;;;6223965;22;20449;-94
2023/09/05 18:48:15;;;;;;;2.70;1.77;;;25.00;99.90;;;;;;6249915;22;20012;-94
2023/09/05 18:50:41;;;;;;;2.30;1.83;;;24.60;99.90;;;;;;6223845;22;20018;-94
2023/09/05 18:53:07;;;;;;;3.28;2.10;;;24.50;99.90;;;;;;6223815;22;20016;-94
2023/09/05 18:55:36;;;;;;;2.47;1.67;;;24.40;99.90;;;;;;6223195;22;20102;-94
2023/09/05 18:58:03;;;;;;;2.70;1.63;;;24.40;99.90;;;;;;6248826;22;20058;-93
2023/09/05 19:00:29;;;;;;;2.42;2.00;;;;;;;;;;6224109;22;20016;-96
2023/09/05 19:02:55;;;;;;;2.00;1.75;;;24.20;99.90;;;;;;6253075;22;20095;-93
2023/09/05 19:05:28;;;;;;;3.72;1.92;;;24.20;99.90;;;;;;6225634;22;20520;-92
2023/09/05 19:07:56;;;;;;;3.00;1.90;;;24.10;99.90;;;;;;6230681;22;20020;-93
2023/09/05 19:10:22;;;;;;;5.15;2.08;;;24.00;99.90;;;;;;6222139;22;20053;-93
2023/09/05 19:12:48;;;;;;;2.70;1.70;;;24.00;99.90;;;;;;6222760;22;20023;-94
2023/09/05 19:15:14;;;;;;;5.40;2.10;;;23.90;99.90;;;;;;6248427;22;20018;-93
2023/09/05 19:17:40;;;;;;;4.18;2.22;;;23.80;99.90;;;;;;6222800;22;20082;-93
2023/09/05 19:20:06;;;;;;;3.33;1.70;;;23.80;99.90;;;;;;6223435;22;20464;-94
2023/09/05 19:22:32;;;;;;;2.33;1.90;;;23.70;99.90;;;;;;6223894;22;20023;-94
2023/09/05 19:24:58;;;;;;;2.08;1.98;;;23.80;99.90;;;;;;6222159;22;20007;-93
2023/09/05 19:27:23;;;;;;;5.22;1.95;;;23.60;99.90;;;;;;6248366;22;20011;-93
2023/09/05 19:29:50;;;;;;;4.55;2.28;;;23.50;99.90;;;;;;6222936;22;20008;-93
2023/09/05 19:32:16;;;;;;;3.67;2.10;;;23.50;99.90;;;;;;6222470;22;20012;-93
2023/09/05 19:34:41;;;;;;;6.03;2.20;;;23.40;99.90;;;;;;6223086;22;20091;-94
2023/09/05 19:37:07;;;;;;;4.45;2.03;;;23.30;99.90;;;;;;6248985;22;20014;-93
2023/09/05 19:39:33;;;;;;;4.93;2.00;;;23.30;99.90;;;;;;6222660;22;20012;-94
2023/09/05 19:41:58;;;;;;;3.55;2.00;;;23.30;99.90;;;;;;6248362;22;20027;-93
2023/09/05 19:44:24;;;;;;;2.22;1.92;;;23.20;99.90;;;;;;6222458;22;20305;-94
2023/09/05 19:46:50;;;;;;;4.72;2.25;;;;;;;;;;6247719;22;20018;-94
2023/09/05 19:49:16;;;;;;;5.95;2.42;;;;;;;;;;6223108;22;20014;-94
2023/09/05 19:51:42;;;;;;;4.28;2.00;;;;;;;;;;6222917;22;20015;-95
2023/09/05 19:54:08;;;;;;;4.10;2.22;;;22.90;99.90;;;;;;6222843;22;20047;-94
2023/09/05 19:56:34;;;;;;;4.68;2.20;;;22.90;99.90;;;;;;6222200;22;20047;-93
2023/09/05 19:58:59;;;;;;;3.25;2.10;;;22.70;99.90;;;;;;6255578;22;20023;-92
2023/09/05 20:01:25;;;;;;;3.38;2.17;;;22.60;99.90;;;;;;6222937;22;20015;-93
2023/09/05 20:03:51;;;;;;;3.05;2.30;;;22.50;99.90;;;;;;6248953;22;20019;-93
2023/09/05 20:06:16;;;;;;;3.70;2.20;;;22.50;99.90;;;;;;6248484;22;20385;-94
2023/09/05 20:08:42;;;;;;;3.28;2.30;;;;;;;;;;6221813;22;20314;-94
2023/09/05 20:11:08;;;;;;;3.35;2.30;;;22.30;99.90;;;;;;6247153;22;20420;-93
2023/09/05 20:13:34;;;;;;;3.25;2.10;;;22.20;99.90;;;;;;6223122;22;20007;-93
2023/09/05 20:16:00;;;;;;;5.75;2.35;;;22.20;99.90;;;;;;6247842;22;20329;-93
2023/09/05 20:18:25;;;;;;;3.72;2.00;;;22.10;99.90;;;;;;6222152;22;20027;-93
2023/09/05 20:20:53;;;;;;;4.68;2.63;;;22.00;99.90;;;;;;6247272;22;20011;-93
2023/09/05 20:23:21;;;;;;;3.15;2.30;;;21.90;99.90;;;;;;6246830;22;20011;-93
2023/09/05 20:25:48;;;;;;;2.58;2.38;;;21.90;99.90;;;;;;6247003;22;20086;-93
2023/09/05 20:28:14;;;;;;;2.30;2.10;;;21.80;99.90;;;;;;6222061;22;20261;-93
2023/09/05 20:30:41;;;;;;;3.17;2.17;;;21.70;99.90;;;;;;6221714;22;20033;-93
2023/09/05 20:33:06;;;;;;;4.22;2.25;;;21.70;99.90;;;;;;6221883;22;20007;-93
2023/09/05 20:35:32;;;;;;;2.60;2.40;;;21.60;99.90;;;;;;6222135;22;20046;-93
2023/09/05 20:37:58;;;;;;;3.08;2.40;;;21.70;99.90;;;;;;6273671;22;20095;-93
2023/09/05 20:40:24;;;;;;;3.47;2.60;;;21.60;99.90;;;;;;6221799;22;20039;-94
2023/09/05 20:42:49;;;;;;;4.25;2.75;;;21.60;99.90;;;;;;6221515;22;20007;-94
2023/09/05 20:45:15;;;;;;;3.35;2.40;;;21.50;99.90;;;;;;6222625;22;20015;-95
2023/09/05 20:47:41;;;;;;;2.85;2.40;;;21.50;99.90;;;;;;6249681;22;20012;-93
2023/09/05 20:50:07;;;;;;;2.42;2.22;;;21.50;99.90;;;;;;6223263;22;20039;-93
2023/09/05 20:52:33;;;;;;;2.88;2.38;;;21.40;99.90;;;;;;6249179;22;20042;-94
2023/09/05 20:54:59;;;;;;;3.92;2.65;;;21.40;99.90;;;;;;6248533;22;20026;-94
2023/09/05 20:57:24;;;;;;;2.97;2.20;;;21.30;99.90;;;;;;6222065;22;20108;-94
2023/09/05 20:59:50;;;;;;;5.13;2.50;;;21.30;99.90;;;;;;6222099;22;20015;-94
2023/09/05 21:02:16;;;;;;;3.40;2.78;;;21.20;99.90;;;;;;6246982;22;20078;-93
2023/09/05 21:04:44;;;;;;;2.80;2.60;;;21.20;99.90;;;;;;6221994;22;20018;-93
2023/09/05 21:07:10;;;;;;;3.55;2.50;;;21.20;99.90;;;;;;6247192;22;20415;-93
2023/09/05 21:09:35;;;;;;;4.25;2.78;;;21.10;99.90;;;;;;6221906;22;20116;-94
2023/09/05 21:12:01;;;;;;;4.28;2.70;;;21.10;99.90;;;;;;6222170;22;20027;-93
2023/09/05 21:14:27;;;;;;;3.92;2.70;;;21.00;99.90;;;;;;6221762;22;20429;-94
2023/09/05 21:16:52;;;;;;;4.07;2.60;;;20.90;99.90;;;;;;6247505;22;20244;-94
2023/09/05 21:19:18;;;;;;;4.03;2.80;;;20.90;99.90;;;;;;6222160;22;20062;-93
2023/09/05 21:21:44;;;;;;;5.50;2.80;;;20.90;99.90;;;;;;6223855;22;20011;-93
2023/09/05 21:24:09;;;;;;;3.30;2.42;;;20.90;99.90;;;;;;6223714;22;20050;-93
2023/09/05 21:26:35;;;;;;;2.80;2.60;;;20.90;99.90;;;;;;6222641;22;20340;-93
2023/09/05 21:29:01;;;;;;;2.70;2.50;;;20.90;99.90;;;;;;6224778;22;20008;-93
2023/09/05 21:31:27;;;;;;;3.58;3.28;;;20.90;99.90;;;;;;6225712;22;20016;-93
2023/09/05 21:33:52;;;;;;;6.50;3.00;;;20.90;99.90;;;;;;6224227;22;20039;-94
2023/09/05 21:36:18;;;;;;;3.15;2.95;;;20.90;99.90;;;;;;6222756;22;20016;-94
2023/09/05 21:38:44;;;;;;;4.03;2.95;;;20.80;99.90;;;;;;6222531;22;20012;-93
2023/09/05 21:41:09;;;;;;;4.53;3.10;;;20.80;99.90;;;;;;6222229;22;20053;-93
2023/09/05 21:43:35;;;;;;;3.47;3.00;;;20.80;99.90;;;;;;6221729;22;20023;-94
2023/09/05 21:46:01;;;;;;;3.90;2.90;;;20.80;99.90;;;;;;6246861;22;20333;-93
2023/09/05 21:48:27;;;;;;;3.75;2.80;;;20.70;99.90;;;;;;6221444;22;20008;-93
2023/09/05 21:50:54;;;;;;;3.83;2.70;;;20.70;99.90;;;;;;6220889;22;20020;-93
2023/09/05 21:53:19;;;;;;;4.30;3.08;;;20.60;99.90;;;;;;6246464;22;20102;-92
2023/09/05 21:55:45;;;;;;;3.67;2.70;;;20.60;99.90;;;;;;6222746;22;20468;-93
2023/09/05 21:58:10;;;;;;;4.30;2.90;;;20.60;99.90;;;;;;6223085;22;20015;-93
2023/09/05 22:00:42;;;;;;;3.80;2.78;;;20.40;99.90;;;;;;6223557;22;20023;-94
2023/09/05 22:03:09;;;;;;;4.05;2.85;;;20.40;99.90;;;;;;6223384;22;20138;-94
2023/09/05 22:05:35;;;;;;;5.23;3.57;;;20.30;99.90;;;;;;6222660;22;20495;-94
2023/09/05 22:08:04;;;;;;;3.95;3.15;;;;;;;;;;6223477;22;20289;-93
2023/09/05 22:10:31;;;;;;;3.05;2.85;;;20.30;99.90;;;;;;6222827;22;20022;-94
2023/09/05 22:12:57;;;;;;;3.13;2.83;;;20.20;99.90;;;;;;6248678;22;20098;-93
2023/09/05 22:15:22;;;;;;;3.22;2.92;;;20.10;99.90;;;;;;6248759;22;20031;-94
2023/09/05 22:17:52;;;;;;;3.78;2.65;;;20.00;99.90;;;;;;6248884;22;20083;-93
2023/09/05 22:20:20;;;;;;;4.65;3.00;;;20.00;99.90;;;;;;6223225;22;20082;-94
2023/09/05 22:22:45;;;;;;;3.47;3.13;;;19.90;99.90;;;;;;6248265;22;20026;-93
2023/09/05 22:25:11;;;;;;;4.28;3.10;;;19.90;99.90;;;;;;6248986;22;20003;-93
2023/09/05 22:27:38;;;;;;;3.50;2.85;;;19.90;99.90;;;;;;6223070;22;20464;-95
2023/09/05 22:30:04;;;;;;;3.37;3.07;;;19.90;99.90;;;;;;6223080;22;20015;-93
2023/09/05 22:32:30;;;;;;;3.50;2.72;;;19.80;99.90;;;;;;6222734;22;20336;-94
2023/09/05 22:34:56;;;;;;;2.67;2.47;;;19.70;99.90;;;;;;6223240;22;20026;-94
2023/09/05 22:37:22;;;;;;;6.28;3.00;;;19.70;99.90;;;;;;6248344;22;20441;-93
2023/09/05 22:39:48;;;;;;;3.05;2.83;;;19.70;99.90;;;;;;6248792;22;20012;-93
2023/09/05 22:42:14;;;;;;;3.45;2.70;;;19.60;99.90;;;;;;6222869;22;20015;-93
2023/09/05 22:44:39;;;;;;;3.65;3.22;;;19.60;99.90;;;;;;6223184;22;20016;-93
2023/09/05 22:47:05;;;;;;;4.85;3.03;;;19.50;99.90;;;;;;6248062;22;20091;-94
2023/09/05 22:49:31;;;;;;;5.60;3.22;;;19.50;99.90;;;;;;6249098;22;20007;-94
2023/09/05 22:51:56;;;;;;;4.13;3.15;;;19.50;99.90;;;;;;6249546;22;20118;-93
2023/09/05 22:54:22;;;;;;;3.85;2.97;;;19.40;99.90;;;;;;6223408;22;20011;-93
2023/09/05 22:56:48;;;;;;;3.28;2.97;;;19.40;99.90;;;;;;6248628;22;20052;-94
2023/09/05 22:59:14;;;;;;;6.00;2.92;;;19.40;99.90;;;;;;6222902;22;20110;-94
2023/09/05 23:01:39;;;;;;;4.80;3.10;;;19.30;99.90;;;;;;6222696;22;20012;-94
2023/09/05 23:04:10;;;;;;;3.25;2.95;;;19.30;99.90;;;;;;6248559;22;20034;-94
2023/09/05 23:06:36;;;;;;;3.30;3.00;;;19.20;99.90;;;;;;6248118;22;20015;-94
2023/09/05 23:09:05;;;;;;;3.72;3.42;;;19.20;99.90;;;;;;6222982;22;20003;-94
2023/09/05 23:11:31;;;;;;;4.07;3.55;;;19.20;99.90;;;;;;6248174;22;20016;-95
2023/09/05 23:13:57;;;;;;;4.53;3.35;;;19.10;99.90;;;;;;6248619;22;20362;-93
2023/09/05 23:16:24;;;;;;;5.60;3.70;;;19.10;99.90;;;;;;6247945;22;20004;-94
2023/09/05 23:18:51;;;;;;;3.80;3.50;;;19.00;99.90;;;;;;6275681;22;20011;-94
2023/09/05 23:21:19;;;;;;;4.50;3.15;;;19.00;99.90;;;;;;6275716;22;20083;-94
2023/09/05 23:23:46;;;;;;;5.05;3.58;;;18.90;99.90;;;;;;6248482;22;20441;-94
2023/09/05 23:26:12;;;;;;;6.15;3.75;;;18.90;99.90;;;;;;6248702;22;20097;-94
2023/09/05 23:28:39;;;;;;;4.07;3.78;;;19.00;99.90;;;;;;6222851;22;20047;-94
2023/09/05 23:31:05;;;;;;;4.53;3.70;;;18.90;99.90;;;;;;6248010;22;20007;-94
2023/09/05 23:33:31;;;;;;;6.80;4.10;;;18.90;99.90;;;;;;6223275;22;20037;-94
2023/09/05 23:35:57;;;;;;;6.05;3.88;;;18.80;99.90;;;;;;6247993;22;20099;-94
2023/09/05 23:38:23;;;;;;;8.02;4.00;;;18.70;99.90;;;;;;6248301;22;20008;-94
2023/09/05 23:40:49;;;;;;;5.65;4.35;;;18.70;99.90;;;;;;6222885;22;20047;-94
2023/09/05 23:43:16;;;;;;;4.90;4.10;;;18.70;99.90;;;;;;6222951;22;20012;-94
2023/09/05 23:45:53;;;;;;;4.32;3.85;;;18.60;99.90;;;;;;6247601;22;20086;-95
2023/09/05 23:48:26;;;;;;;4.53;4.05;;;18.60;99.90;;;;;;6222640;22;20054;-95
2023/09/05 23:50:56;;;;;;;5.50;4.35;;;18.60;99.90;;;;;;6248339;22;20012;-95
2023/09/05 23:53:21;;;;;;;4.90;3.95;;;18.60;99.90;;;;;;6223410;22;20015;-94
2023/09/05 23:55:49;;;;;;;7.93;4.30;;;18.60;99.90;;;;;;6248359;22;20494;-94
2023/09/05 23:58:15;;;;;;;;;;;18.60;99.90;;;;;;6222940;22;20049;-94
